South Boston, VA

4:12 AM EST on February 07, 2016 (GMT -0500)
Union Community Near South Boston, Va | | Change Station
CLOSE
Current Station
Personal Weather Station
Location: South Boston, VA
Elevation: 440 ft
Nearby Weather Stations

Elev 440 ft 36.70 °N, 79.00 °W | Updated 10 minutes ago

Mostly Cloudy
Mostly Cloudy
27.5 °F
Feels Like 28 °F
N
0.0
Wind Variable Wind from North
Gusts 0.0 mph

Today
High -- | Low -- °F
--% Chance of Precip.
Yesterday
High -- | Low -- °F
Precip. -- in
Pressure 30.16 in
Visibility 10.0 miles
Clouds Overcast 11000 ft
Windchill 28 °F
Dew Point Not available.
Humidity Not available.
Rainfall 0.00 in
Snow Depth Not available.
7:12 AM 5:47 PM
Waning Crescent, 2% visible
METAR KDAN 070853Z AUTO 00000KT 10SM OVC110 01/M03 A3017 RMK AO2 SLP212 T00061033 57028
Pressure 30.16 in
Visibility 10.0 miles
Clouds Overcast 11000 ft
Windchill 28 °F
Dew Point Not available.
Humidity Not available.
Rainfall 0.00 in
Snow Depth Not available.
7:12 AM 5:47 PM
Waning Crescent, 2% visible
METAR KDAN 070853Z AUTO 00000KT 10SM OVC110 01/M03 A3017 RMK AO2 SLP212 T00061033 57028

10-Day Weather Forecast

Almanac

Astronomy

Feb. 07, 2016 Rise Set
Actual Time
Civil Twilight
Nautical Twilight
Astronomical Twilight
Moon
Length of Visible Light
Length of Day
Tomorrow will be .
, % of the Moon is Illuminated

Today's Extremes

State Highs State Lows

Community

WunderPhotos

Upload Photos

1,891,171 photos uploaded!

WunderBlog® & News

Nearby

Air Quality

  Air Quality AQ Index Pollutant
Not available.

Snow Depth

Station Depth Elevation

Earthquake Activity

City Distance Mag. Time & Date
Minimum magnitude displayed is 2.5.

Coastal Water Temperatures

Place Temperature

Stations

Nearby Weather Stations

Station Location Temp. Windchill Dew Point Humidity Wind Precip. Elev Updated Type
                   

Watches & Warnings

There are currently no watches in effect.